createdAt,value
2023-05-06T00:01:44.017Z,8.70
2023-05-06T00:04:12.388Z,8.35
2023-05-06T00:06:41.809Z,8.25
2023-05-06T00:09:10.672Z,8.50
2023-05-06T00:11:38.620Z,8.20
2023-05-06T00:14:06.831Z,7.85
2023-05-06T00:16:34.998Z,8.90
2023-05-06T00:19:03.160Z,9.00
2023-05-06T00:21:31.265Z,8.85
2023-05-06T00:23:59.438Z,8.90
2023-05-06T00:26:27.484Z,9.07
2023-05-06T00:28:56.385Z,8.65
2023-05-06T00:31:24.624Z,8.75
2023-05-06T00:33:52.677Z,8.02
2023-05-06T00:36:21.052Z,8.77
2023-05-06T00:38:49.208Z,8.90
2023-05-06T00:41:17.341Z,9.25
2023-05-06T00:43:45.690Z,8.18
2023-05-06T00:46:17.380Z,8.55
2023-05-06T00:48:45.685Z,8.98
2023-05-06T00:51:14.088Z,9.05
2023-05-06T00:53:42.481Z,9.23
2023-05-06T00:56:10.771Z,8.68
2023-05-06T00:58:39.351Z,8.50
2023-05-06T01:01:08.338Z,8.63
2023-05-06T01:03:36.655Z,9.10
2023-05-06T01:06:32.191Z,8.50
2023-05-06T01:09:32.089Z,8.90
2023-05-06T01:12:34.541Z,8.82
2023-05-06T01:15:08.838Z,8.52
2023-05-06T01:17:43.491Z,9.32
2023-05-06T01:20:12.827Z,10.68
2023-05-06T01:22:41.444Z,9.73
2023-05-06T01:25:19.913Z,9.65
2023-05-06T01:27:50.488Z,10.15
2023-05-06T01:30:20.278Z,9.65
2023-05-06T01:33:11.918Z,10.45
2023-05-06T01:36:00.769Z,10.48
2023-05-06T01:38:37.924Z,10.27
2023-05-06T01:41:06.395Z,10.65
2023-05-06T01:43:41.857Z,10.82
2023-05-06T01:46:15.956Z,10.65
2023-05-06T01:48:45.461Z,11.25
2023-05-06T01:51:13.500Z,10.55
2023-05-06T01:53:42.116Z,9.98
2023-05-06T01:56:10.578Z,10.27
2023-05-06T01:58:39.299Z,9.48
2023-05-06T02:01:07.634Z,10.35
2023-05-06T02:03:37.526Z,9.82
2023-05-06T02:06:06.115Z,9.73
2023-05-06T02:08:41.218Z,9.35
2023-05-06T02:13:41.181Z,8.57
2023-05-06T02:16:10.717Z,9.30
2023-05-06T02:18:39.668Z,9.02
2023-05-06T02:21:08.369Z,9.93
2023-05-06T02:23:36.476Z,9.38
2023-05-06T02:26:04.688Z,10.27
2023-05-06T02:28:34.395Z,10.15
2023-05-06T02:31:02.483Z,10.38
2023-05-06T02:33:30.761Z,10.35
2023-05-06T02:35:58.931Z,11.07
2023-05-06T02:38:27.110Z,10.95
2023-05-06T02:40:55.339Z,11.23
2023-05-06T02:43:23.331Z,10.75
2023-05-06T02:45:51.670Z,11.73
2023-05-06T02:48:20.227Z,12.07
2023-05-06T02:50:48.592Z,12.20
2023-05-06T02:53:16.886Z,12.93
2023-05-06T02:55:45.661Z,12.32
2023-05-06T02:58:13.868Z,13.15
2023-05-06T03:00:42.003Z,12.63
2023-05-06T03:03:10.157Z,12.95
2023-05-06T03:05:38.547Z,13.15
2023-05-06T03:08:06.963Z,12.82
2023-05-06T03:10:36.236Z,12.82
2023-05-06T03:13:04.473Z,10.90
2023-05-06T03:15:32.854Z,11.15
2023-05-06T03:18:01.062Z,11.55
2023-05-06T03:20:31.295Z,11.63
2023-05-06T03:23:01.596Z,12.38
2023-05-06T03:25:37.234Z,12.13
2023-05-06T03:28:05.945Z,12.60
2023-05-06T03:30:35.574Z,12.88
2023-05-06T03:33:06.967Z,12.50
2023-05-06T03:35:35.530Z,11.98
2023-05-06T03:38:03.938Z,11.65
2023-05-06T03:40:42.123Z,12.50
2023-05-06T03:43:10.562Z,13.40
2023-05-06T03:45:43.185Z,13.50
2023-05-06T03:48:11.661Z,14.35
2023-05-06T03:50:43.773Z,14.00
2023-05-06T03:53:13.562Z,14.48
2023-05-06T03:55:48.982Z,14.18
2023-05-06T03:58:17.896Z,14.82
2023-05-06T04:00:47.423Z,15.38
2023-05-06T04:03:15.846Z,16.67
2023-05-06T04:05:50.987Z,17.10
2023-05-06T04:08:22.986Z,17.40
2023-05-06T04:10:51.080Z,17.13
2023-05-06T04:13:27.593Z,17.48
2023-05-06T04:15:58.414Z,17.75
2023-05-06T04:18:32.995Z,18.05
2023-05-06T04:21:05.604Z,18.45
2023-05-06T04:23:39.282Z,18.40
2023-05-06T04:26:08.664Z,19.30
2023-05-06T04:28:42.002Z,18.25
2023-05-06T04:31:16.768Z,18.08
2023-05-06T04:33:47.970Z,18.20
2023-05-06T04:36:18.993Z,18.55
2023-05-06T04:38:59.498Z,18.08
2023-05-06T04:44:19.589Z,17.70
2023-05-06T04:46:55.128Z,17.58
2023-05-06T04:49:23.481Z,18.77
2023-05-06T04:51:52.406Z,18.90
2023-05-06T04:54:20.578Z,18.30
2023-05-06T04:56:48.587Z,18.63
2023-05-06T04:59:19.344Z,18.05
2023-05-06T05:01:47.567Z,18.65
2023-05-06T05:04:15.711Z,18.77
2023-05-06T05:06:43.988Z,18.15
2023-05-06T05:09:13.268Z,18.88
2023-05-06T05:11:44.212Z,19.73
2023-05-06T05:14:14.422Z,17.65
2023-05-06T05:16:42.593Z,18.05
2023-05-06T05:19:10.909Z,18.15
2023-05-06T05:21:45.512Z,17.70
2023-05-06T05:24:16.797Z,17.52
2023-05-06T05:26:49.495Z,19.70
2023-05-06T05:29:18.812Z,18.35
2023-05-06T05:31:53.970Z,16.70
2023-05-06T05:34:22.243Z,16.83
2023-05-06T05:36:51.141Z,16.38
2023-05-06T05:39:19.989Z,16.63
2023-05-06T05:41:49.530Z,16.20
2023-05-06T05:44:17.936Z,16.27
2023-05-06T05:46:46.107Z,16.05
2023-05-06T05:49:17.531Z,16.20
2023-05-06T05:51:45.613Z,16.45
2023-05-06T05:54:16.918Z,16.95
2023-05-06T05:56:44.976Z,16.83
2023-05-06T05:59:15.446Z,15.45
2023-05-06T06:01:45.815Z,16.00
2023-05-06T06:04:15.009Z,16.13
2023-05-06T06:06:43.566Z,14.70
2023-05-06T06:09:12.230Z,14.90
2023-05-06T06:11:41.451Z,16.23
2023-05-06T06:14:10.696Z,15.48
2023-05-06T06:16:39.462Z,15.23
2023-05-06T06:19:07.508Z,14.88
2023-05-06T06:21:36.025Z,17.00
2023-05-06T06:24:06.229Z,16.30
2023-05-06T06:26:34.992Z,15.85
2023-05-06T06:29:03.489Z,14.32
2023-05-06T06:31:34.455Z,14.05
2023-05-06T06:34:18.050Z,14.02
2023-05-06T06:36:46.312Z,14.38
2023-05-06T06:39:15.001Z,13.70
2023-05-06T06:41:43.627Z,13.25
2023-05-06T06:44:13.406Z,12.55
2023-05-06T06:46:47.821Z,11.30
2023-05-06T06:49:17.981Z,11.27
2023-05-06T06:51:46.242Z,10.73
2023-05-06T06:54:20.685Z,10.27
2023-05-06T06:59:20.285Z,9.95
2023-05-06T07:04:50.028Z,11.00
2023-05-06T07:07:20.082Z,10.93
2023-05-06T07:09:48.332Z,11.43
2023-05-06T07:12:16.427Z,11.52
2023-05-06T07:14:44.415Z,11.18
2023-05-06T07:17:12.889Z,11.38
2023-05-06T07:19:41.249Z,11.27
2023-05-06T07:22:09.947Z,11.05
2023-05-06T07:24:38.154Z,11.55
2023-05-06T07:27:06.023Z,12.57
2023-05-06T07:29:36.631Z,12.02
2023-05-06T07:32:04.918Z,12.02
2023-05-06T07:34:36.499Z,12.25
2023-05-06T07:37:08.333Z,11.70
2023-05-06T07:39:36.714Z,12.35
2023-05-06T07:42:05.008Z,12.30
2023-05-06T07:44:33.198Z,11.85
2023-05-06T07:47:01.531Z,12.35
2023-05-06T07:49:31.478Z,12.63
2023-05-06T07:52:02.522Z,13.23
2023-05-06T07:54:34.310Z,12.20
2023-05-06T07:57:09.082Z,12.77
2023-05-06T07:59:41.312Z,11.52
2023-05-06T08:02:17.536Z,11.82
2023-05-06T08:04:47.977Z,12.98
2023-05-06T08:07:23.782Z,12.70
2023-05-06T08:10:02.402Z,12.65
2023-05-06T08:12:30.635Z,12.60
2023-05-06T08:15:02.998Z,13.10
2023-05-06T08:17:34.108Z,13.43
2023-05-06T08:20:02.335Z,13.38
2023-05-06T08:22:30.725Z,12.70
2023-05-06T08:24:59.031Z,14.13
2023-05-06T08:27:36.184Z,13.93
2023-05-06T08:30:04.765Z,13.15
2023-05-06T08:32:33.135Z,12.90
2023-05-06T08:35:05.495Z,13.55
2023-05-06T08:37:34.345Z,12.52
2023-05-06T08:40:05.714Z,13.15
2023-05-06T08:42:36.826Z,13.23
2023-05-06T08:45:05.787Z,13.80
2023-05-06T08:47:34.198Z,13.70
2023-05-06T08:50:02.563Z,14.02
2023-05-06T08:52:31.609Z,13.20
2023-05-06T08:55:04.316Z,13.73
2023-05-06T08:57:33.669Z,14.30
2023-05-06T09:00:09.672Z,12.30
2023-05-06T09:02:43.301Z,11.57
2023-05-06T09:05:16.339Z,12.27
2023-05-06T09:07:45.265Z,12.85
2023-05-06T09:12:58.579Z,12.57
2023-05-06T09:15:49.005Z,13.50
2023-05-06T09:18:18.341Z,12.23
2023-05-06T09:20:48.668Z,12.25
2023-05-06T09:23:18.317Z,12.75
2023-05-06T09:25:51.395Z,12.85
2023-05-06T09:28:19.531Z,12.52
2023-05-06T09:30:51.088Z,12.40
2023-05-06T09:33:19.192Z,12.32
2023-05-06T09:35:48.590Z,11.95
2023-05-06T09:38:16.972Z,12.18
2023-05-06T09:40:45.059Z,11.43
2023-05-06T09:43:16.750Z,10.73
2023-05-06T09:45:46.376Z,11.02
2023-05-06T09:48:16.355Z,11.10
2023-05-06T09:50:48.326Z,10.48
2023-05-06T09:53:20.435Z,10.65
2023-05-06T09:55:49.621Z,11.00
2023-05-06T09:58:18.181Z,10.63
2023-05-06T10:00:46.935Z,10.70
2023-05-06T10:03:16.573Z,10.15
2023-05-06T10:05:44.774Z,10.07
2023-05-06T10:08:18.748Z,8.43
2023-05-06T10:10:49.452Z,8.20
2023-05-06T10:13:19.719Z,8.60
2023-05-06T10:15:49.790Z,7.25
2023-05-06T10:18:21.051Z,7.30
2023-05-06T10:20:57.724Z,7.60
2023-05-06T10:23:42.754Z,7.43
2023-05-06T10:26:16.934Z,7.30
2023-05-06T10:28:52.828Z,6.13
2023-05-06T10:31:27.940Z,6.00
2023-05-06T10:34:05.847Z,6.00
2023-05-06T10:36:36.718Z,6.35
2023-05-06T10:39:07.423Z,6.47
2023-05-06T10:41:37.460Z,5.95
2023-05-06T10:44:07.138Z,4.95
2023-05-06T10:47:03.176Z,4.75
2023-05-06T10:49:31.474Z,4.95
2023-05-06T10:52:12.863Z,5.20
2023-05-06T10:54:54.961Z,6.30
2023-05-06T10:57:49.637Z,5.55
2023-05-06T11:03:10.637Z,5.53
2023-05-06T11:05:53.015Z,5.22
2023-05-06T11:08:27.896Z,5.25
2023-05-06T11:10:56.509Z,7.18
2023-05-06T11:13:36.331Z,6.40
2023-05-06T11:16:05.231Z,6.32
2023-05-06T11:18:39.488Z,5.85
2023-05-06T11:21:13.482Z,5.53
2023-05-06T11:23:59.656Z,6.93
2023-05-06T11:26:28.084Z,6.03
2023-05-06T11:29:02.043Z,5.95
2023-05-06T11:31:39.229Z,5.90
2023-05-06T11:34:13.199Z,6.15
2023-05-06T11:36:49.904Z,5.78
2023-05-06T11:39:18.001Z,5.53
2023-05-06T11:41:47.164Z,5.60
2023-05-06T11:44:29.767Z,5.78
2023-05-06T11:47:10.951Z,5.18
2023-05-06T11:49:43.488Z,5.50
2023-05-06T11:52:13.358Z,5.60
2023-05-06T11:54:42.984Z,5.30
2023-05-06T11:57:13.785Z,5.53
2023-05-06T11:59:56.194Z,5.07
2023-05-06T12:02:24.865Z,4.63
2023-05-06T12:04:54.704Z,4.70
2023-05-06T12:07:23.626Z,4.38
2023-05-06T12:09:57.516Z,5.15
2023-05-06T12:12:27.740Z,4.13
2023-05-06T12:15:00.249Z,4.95
2023-05-06T12:17:31.672Z,4.43
2023-05-06T12:20:16.340Z,4.32
2023-05-06T12:22:58.710Z,4.78
2023-05-06T12:25:35.025Z,4.30
2023-05-06T12:28:27.778Z,4.50
2023-05-06T12:31:08.065Z,3.95
2023-05-06T12:33:49.485Z,3.42
2023-05-06T12:36:23.206Z,3.42
2023-05-06T12:38:53.400Z,3.15
2023-05-06T12:41:22.717Z,3.85
2023-05-06T12:43:57.651Z,4.55
2023-05-06T12:46:26.976Z,3.42
2023-05-06T12:49:06.416Z,3.70
2023-05-06T12:51:50.942Z,4.32
2023-05-06T12:54:56.537Z,4.25
2023-05-06T12:57:57.865Z,4.80
2023-05-06T13:00:45.351Z,4.82
2023-05-06T13:07:02.920Z,3.67
2023-05-06T13:09:43.975Z,3.40
2023-05-06T13:12:33.325Z,3.63
2023-05-06T13:15:16.930Z,3.50
2023-05-06T13:18:01.010Z,3.10
2023-05-06T13:20:29.822Z,3.30
2023-05-06T13:23:00.462Z,2.92
2023-05-06T13:25:51.094Z,3.13
2023-05-06T13:31:54.989Z,3.38
2023-05-06T13:34:23.464Z,3.47
2023-05-06T13:36:52.058Z,3.25
2023-05-06T13:39:20.946Z,3.20
2023-05-06T13:41:50.223Z,3.70
2023-05-06T13:44:22.172Z,3.33
2023-05-06T13:46:50.791Z,2.78
2023-05-06T13:49:23.076Z,2.88
2023-05-06T13:51:51.633Z,3.08
2023-05-06T13:54:19.835Z,2.95
2023-05-06T13:56:51.462Z,3.10
2023-05-06T13:59:19.570Z,3.30
2023-05-06T14:01:49.736Z,2.90
2023-05-06T14:04:17.724Z,3.00
2023-05-06T14:06:45.966Z,3.08
2023-05-06T14:09:14.830Z,2.70
2023-05-06T14:11:42.797Z,2.95
2023-05-06T14:14:11.047Z,2.95
2023-05-06T14:16:39.488Z,3.40
2023-05-06T14:19:07.714Z,3.50
2023-05-06T14:21:35.773Z,3.20
2023-05-06T14:24:06.131Z,3.35
2023-05-06T14:26:35.604Z,2.90
2023-05-06T14:29:03.864Z,3.17
2023-05-06T14:31:33.947Z,3.20
2023-05-06T14:34:03.083Z,3.20
2023-05-06T14:36:31.526Z,2.60
2023-05-06T14:39:00.567Z,2.45
2023-05-06T14:41:35.872Z,2.83
2023-05-06T14:44:04.031Z,2.33
2023-05-06T14:46:32.668Z,2.78
2023-05-06T14:49:01.025Z,2.50
2023-05-06T14:51:29.519Z,2.42
2023-05-06T14:53:57.342Z,2.83
2023-05-06T14:56:28.567Z,3.08
2023-05-06T14:58:56.834Z,3.10
2023-05-06T15:01:24.856Z,2.80
2023-05-06T15:03:53.286Z,3.20
2023-05-06T15:06:21.330Z,3.42
2023-05-06T15:08:49.172Z,3.55
2023-05-06T15:11:17.508Z,3.17
2023-05-06T15:13:45.772Z,3.30
2023-05-06T15:16:13.895Z,2.92
2023-05-06T15:18:45.597Z,3.28
2023-05-06T15:21:14.182Z,3.22
2023-05-06T15:23:42.602Z,3.28
2023-05-06T15:26:10.811Z,3.22
2023-05-06T15:28:38.822Z,4.35
2023-05-06T15:31:10.037Z,4.18
2023-05-06T15:33:38.158Z,3.60
2023-05-06T15:36:06.865Z,3.50
2023-05-06T15:38:53.537Z,3.78
2023-05-06T15:41:24.882Z,3.70
2023-05-06T15:43:58.176Z,3.38
2023-05-06T15:46:27.588Z,3.23
2023-05-06T15:49:15.746Z,3.15
2023-05-06T15:51:44.142Z,3.13
2023-05-06T15:54:13.175Z,3.20
2023-05-06T15:56:45.544Z,3.60
2023-05-06T15:59:16.784Z,4.00
2023-05-06T16:04:17.304Z,3.00
2023-05-06T16:06:45.576Z,3.08
2023-05-06T16:09:13.701Z,3.20
2023-05-06T16:11:41.614Z,3.00
2023-05-06T16:14:09.666Z,3.25
2023-05-06T16:16:38.067Z,2.97
2023-05-06T16:19:07.695Z,3.22
2023-05-06T16:21:35.647Z,3.47
2023-05-06T16:24:03.683Z,3.97
2023-05-06T16:26:31.530Z,3.85
2023-05-06T16:29:01.431Z,3.55
2023-05-06T16:31:29.489Z,3.30
2023-05-06T16:33:57.376Z,3.38
2023-05-06T16:36:25.578Z,3.72
2023-05-06T16:38:53.345Z,3.58
2023-05-06T16:41:21.533Z,3.92
2023-05-06T16:43:49.712Z,4.47
2023-05-06T16:46:17.693Z,4.80
2023-05-06T16:48:45.698Z,6.03
2023-05-06T16:51:17.842Z,5.30
2023-05-06T16:53:45.781Z,3.85
2023-05-06T16:56:14.085Z,3.70
2023-05-06T16:58:42.920Z,4.25
2023-05-06T17:01:11.828Z,2.90
2023-05-06T17:03:40.502Z,2.78
2023-05-06T17:06:08.902Z,2.97
2023-05-06T17:08:37.530Z,3.33
2023-05-06T17:11:08.641Z,2.70
2023-05-06T17:13:36.654Z,3.17
2023-05-06T17:16:04.734Z,3.67
2023-05-06T17:18:32.664Z,3.25
2023-05-06T17:21:01.406Z,4.47
2023-05-06T17:23:29.419Z,4.63
2023-05-06T17:25:58.863Z,5.68
2023-05-06T17:28:30.016Z,7.90
2023-05-06T17:30:59.164Z,9.85
2023-05-06T17:33:27.313Z,11.82
2023-05-06T17:35:55.842Z,11.80
2023-05-06T17:38:23.809Z,12.48
2023-05-06T17:40:51.938Z,12.80
2023-05-06T17:43:19.896Z,11.95
2023-05-06T17:45:48.082Z,13.77
2023-05-06T17:48:16.227Z,12.55
2023-05-06T17:50:44.247Z,12.52
2023-05-06T17:53:12.498Z,12.30
2023-05-06T17:55:41.494Z,12.98
2023-05-06T17:58:09.408Z,13.45
2023-05-06T18:00:37.965Z,13.48
2023-05-06T18:03:06.270Z,14.13
2023-05-06T18:05:34.390Z,13.65
2023-05-06T18:08:02.561Z,12.73
2023-05-06T18:10:31.293Z,12.80
2023-05-06T18:12:59.339Z,13.60
2023-05-06T18:15:27.506Z,14.32
2023-05-06T18:17:55.597Z,13.10
2023-05-06T18:20:23.814Z,14.05
2023-05-06T18:22:51.813Z,13.43
2023-05-06T18:25:20.053Z,14.40
2023-05-06T18:27:48.389Z,13.88
2023-05-06T18:30:19.557Z,13.63
2023-05-06T18:32:50.998Z,14.77
2023-05-06T18:35:19.948Z,16.40
2023-05-06T18:37:47.968Z,17.83
2023-05-06T18:40:16.616Z,17.95
2023-05-06T18:42:47.474Z,18.45
2023-05-06T18:45:15.851Z,17.83
2023-05-06T18:47:44.081Z,16.90
2023-05-06T18:50:16.287Z,13.25
2023-05-06T18:52:44.349Z,11.10
2023-05-06T18:55:12.439Z,9.35
2023-05-06T18:57:40.657Z,7.60
2023-05-06T19:00:09.032Z,7.75
2023-05-06T19:02:37.882Z,6.47
2023-05-06T19:05:07.214Z,7.55
2023-05-06T19:07:35.147Z,6.85
2023-05-06T19:10:03.075Z,6.05
2023-05-06T19:12:31.266Z,6.07
2023-05-06T19:15:00.086Z,6.50
2023-05-06T19:17:28.410Z,6.50
2023-05-06T19:19:59.266Z,5.32
2023-05-06T19:22:27.264Z,5.18
2023-05-06T19:24:55.250Z,5.20
2023-05-06T19:27:24.634Z,5.20
2023-05-06T19:29:52.541Z,4.82
2023-05-06T19:32:21.079Z,5.32
2023-05-06T19:34:49.001Z,5.88
2023-05-06T19:37:17.220Z,5.93
2023-05-06T19:39:46.448Z,5.70
2023-05-06T19:42:15.393Z,5.93
2023-05-06T19:44:43.573Z,6.15
2023-05-06T19:47:12.688Z,6.68
2023-05-06T19:49:40.662Z,6.00
2023-05-06T19:52:08.579Z,6.18
2023-05-06T19:54:36.723Z,6.07
2023-05-06T19:57:04.696Z,6.95
2023-05-06T19:59:32.652Z,5.93
2023-05-06T20:02:02.168Z,5.55
2023-05-06T20:04:30.234Z,5.95
2023-05-06T20:06:59.491Z,4.82
2023-05-06T20:09:27.394Z,5.10
2023-05-06T20:11:56.951Z,4.75
2023-05-06T20:14:25.187Z,5.38
2023-05-06T20:16:53.192Z,6.00
2023-05-06T20:19:29.234Z,5.45
2023-05-06T20:21:58.217Z,5.78
2023-05-06T20:24:29.285Z,5.90
2023-05-06T20:27:00.188Z,5.90
2023-05-06T20:29:28.130Z,5.68
2023-05-06T20:31:57.477Z,6.07
2023-05-06T20:34:27.087Z,5.80
2023-05-06T20:36:56.496Z,5.78
2023-05-06T20:39:28.994Z,5.70
2023-05-06T20:41:58.380Z,5.70
2023-05-06T20:44:27.172Z,5.47
2023-05-06T20:46:55.651Z,5.90
2023-05-06T20:49:23.540Z,5.40
2023-05-06T20:51:52.543Z,5.88
2023-05-06T20:54:21.526Z,5.63
2023-05-06T20:56:49.544Z,7.72
2023-05-06T20:59:17.520Z,6.80
2023-05-06T21:01:45.746Z,6.80
2023-05-06T21:04:14.287Z,6.22
2023-05-06T21:06:42.438Z,7.30
2023-05-06T21:09:10.442Z,7.00
2023-05-06T21:11:38.620Z,7.00
2023-05-06T21:14:06.852Z,7.13
2023-05-06T21:16:37.235Z,6.95
2023-05-06T21:19:05.906Z,7.93
2023-05-06T21:21:34.941Z,8.10
2023-05-06T21:24:04.988Z,7.82
2023-05-06T21:26:33.841Z,8.50
2023-05-06T21:29:01.807Z,9.40
2023-05-06T21:31:30.352Z,9.32
2023-05-06T21:33:59.227Z,8.98
2023-05-06T21:36:28.497Z,9.90
2023-05-06T21:39:06.738Z,9.85
2023-05-06T21:41:38.463Z,9.77
2023-05-06T21:44:08.077Z,10.75
2023-05-06T21:46:39.111Z,11.27
2023-05-06T21:49:07.537Z,10.88
2023-05-06T21:51:36.265Z,11.55
2023-05-06T21:54:04.149Z,11.65
2023-05-06T21:56:32.476Z,10.85
2023-05-06T21:59:00.408Z,11.75
2023-05-06T22:01:29.128Z,11.63
2023-05-06T22:03:57.392Z,10.98
2023-05-06T22:06:25.361Z,10.23
2023-05-06T22:08:53.347Z,10.82
2023-05-06T22:11:22.665Z,10.65
2023-05-06T22:13:50.708Z,10.13
2023-05-06T22:16:18.537Z,10.55
2023-05-06T22:18:46.570Z,10.57
2023-05-06T22:21:14.386Z,10.88
2023-05-06T22:23:42.247Z,10.48
2023-05-06T22:26:09.984Z,10.77
2023-05-06T22:28:37.719Z,10.45
2023-05-06T22:31:05.809Z,10.25
2023-05-06T22:33:33.725Z,10.85
2023-05-06T22:36:01.583Z,11.75
2023-05-06T22:38:29.358Z,11.32
2023-05-06T22:40:57.176Z,11.40
2023-05-06T22:43:24.951Z,11.38
2023-05-06T22:45:52.732Z,12.07
2023-05-06T22:48:22.054Z,11.35
2023-05-06T22:50:49.995Z,11.55
2023-05-06T22:53:17.763Z,11.50
2023-05-06T22:55:45.783Z,11.18
2023-05-06T22:58:13.571Z,11.13
2023-05-06T23:00:43.115Z,10.95
2023-05-06T23:03:10.975Z,10.75
2023-05-06T23:05:38.790Z,10.75
2023-05-06T23:08:06.642Z,10.40
2023-05-06T23:10:34.727Z,11.02
2023-05-06T23:13:03.208Z,10.43
2023-05-06T23:15:31.197Z,9.95
2023-05-06T23:17:59.261Z,9.88
2023-05-06T23:20:27.151Z,10.70
2023-05-06T23:22:54.896Z,10.50
2023-05-06T23:25:22.771Z,11.38
2023-05-06T23:27:50.712Z,10.18
2023-05-06T23:30:18.494Z,10.05
2023-05-06T23:32:46.514Z,10.93
2023-05-06T23:35:14.364Z,10.98
2023-05-06T23:37:42.225Z,10.30
2023-05-06T23:40:12.634Z,10.38
2023-05-06T23:42:41.488Z,10.77
2023-05-06T23:45:10.072Z,10.25
2023-05-06T23:47:38.180Z,9.88
2023-05-06T23:50:06.887Z,9.95
2023-05-06T23:52:37.257Z,9.10
2023-05-06T23:55:08.182Z,9.77
2023-05-06T23:57:36.301Z,9.60
